sensor_id;sensor_type;location;lat;lon;timestamp;P1;durP1;ratioP1;P2;durP2;ratioP2
53714;SDS011;39608;55.630;37.864;2023-11-19T00:01:56;17.20;;;5.97;;
53714;SDS011;39608;55.630;37.864;2023-11-19T00:06:59;20.95;;;6.07;;
53714;SDS011;39608;55.630;37.864;2023-11-19T00:12:05;17.17;;;5.93;;
53714;SDS011;39608;55.630;37.864;2023-11-19T00:17:08;10.93;;;5.93;;
53714;SDS011;39608;55.630;37.864;2023-11-19T00:22:11;25.55;;;7.15;;
53714;SDS011;39608;55.630;37.864;2023-11-19T00:27:13;13.20;;;5.63;;
53714;SDS011;39608;55.630;37.864;2023-11-19T00:32:19;12.70;;;5.80;;
53714;SDS011;39608;55.630;37.864;2023-11-19T00:37:22;27.17;;;7.05;;
53714;SDS011;39608;55.630;37.864;2023-11-19T00:42:24;20.50;;;7.47;;
53714;SDS011;39608;55.630;37.864;2023-11-19T00:47:27;20.63;;;9.68;;
53714;SDS011;39608;55.630;37.864;2023-11-19T00:52:32;25.23;;;6.82;;
53714;SDS011;39608;55.630;37.864;2023-11-19T00:57:35;17.42;;;7.28;;
53714;SDS011;39608;55.630;37.864;2023-11-19T01:02:37;22.83;;;8.65;;
53714;SDS011;39608;55.630;37.864;2023-11-19T01:07:40;18.25;;;7.05;;
53714;SDS011;39608;55.630;37.864;2023-11-19T01:12:44;24.02;;;7.32;;
53714;SDS011;39608;55.630;37.864;2023-11-19T01:17:46;30.58;;;9.00;;
53714;SDS011;39608;55.630;37.864;2023-11-19T01:22:49;20.95;;;7.80;;
53714;SDS011;39608;55.630;37.864;2023-11-19T01:27:52;22.33;;;10.13;;
53714;SDS011;39608;55.630;37.864;2023-11-19T01:32:58;18.92;;;8.70;;
53714;SDS011;39608;55.630;37.864;2023-11-19T01:38:02;22.45;;;8.45;;
53714;SDS011;39608;55.630;37.864;2023-11-19T01:43:04;15.85;;;6.18;;
53714;SDS011;39608;55.630;37.864;2023-11-19T01:48:06;24.27;;;8.38;;
53714;SDS011;39608;55.630;37.864;2023-11-19T01:53:14;14.77;;;7.32;;
53714;SDS011;39608;55.630;37.864;2023-11-19T01:58:17;19.73;;;8.60;;
53714;SDS011;39608;55.630;37.864;2023-11-19T02:03:19;22.67;;;7.63;;
53714;SDS011;39608;55.630;37.864;2023-11-19T02:08:26;26.10;;;9.88;;
53714;SDS011;39608;55.630;37.864;2023-11-19T02:13:28;24.77;;;10.20;;
53714;SDS011;39608;55.630;37.864;2023-11-19T02:18:31;26.67;;;8.40;;
53714;SDS011;39608;55.630;37.864;2023-11-19T02:23:34;18.13;;;7.60;;
53714;SDS011;39608;55.630;37.864;2023-11-19T02:28:41;32.75;;;9.27;;
53714;SDS011;39608;55.630;37.864;2023-11-19T02:33:44;23.60;;;9.00;;
53714;SDS011;39608;55.630;37.864;2023-11-19T02:38:46;24.35;;;8.82;;
53714;SDS011;39608;55.630;37.864;2023-11-19T02:43:49;27.30;;;10.88;;
53714;SDS011;39608;55.630;37.864;2023-11-19T02:48:51;29.70;;;10.88;;
53714;SDS011;39608;55.630;37.864;2023-11-19T02:53:56;19.35;;;6.85;;
53714;SDS011;39608;55.630;37.864;2023-11-19T02:59:00;9.18;;;4.57;;
53714;SDS011;39608;55.630;37.864;2023-11-19T03:04:08;17.65;;;5.78;;
53714;SDS011;39608;55.630;37.864;2023-11-19T03:09:12;24.85;;;8.23;;
53714;SDS011;39608;55.630;37.864;2023-11-19T03:14:15;22.02;;;8.98;;
53714;SDS011;39608;55.630;37.864;2023-11-19T03:19:17;20.75;;;8.68;;
53714;SDS011;39608;55.630;37.864;2023-11-19T03:24:19;10.98;;;5.30;;
53714;SDS011;39608;55.630;37.864;2023-11-19T03:29:24;28.63;;;9.40;;
53714;SDS011;39608;55.630;37.864;2023-11-19T03:34:26;10.48;;;3.05;;
53714;SDS011;39608;55.630;37.864;2023-11-19T03:39:28;13.77;;;5.03;;
53714;SDS011;39608;55.630;37.864;2023-11-19T03:44:32;27.70;;;9.60;;
53714;SDS011;39608;55.630;37.864;2023-11-19T03:49:34;18.40;;;8.80;;
53714;SDS011;39608;55.630;37.864;2023-11-19T03:54:37;23.90;;;9.50;;
53714;SDS011;39608;55.630;37.864;2023-11-19T03:59:40;21.85;;;9.00;;
53714;SDS011;39608;55.630;37.864;2023-11-19T04:04:42;23.05;;;8.90;;
53714;SDS011;39608;55.630;37.864;2023-11-19T04:09:46;26.65;;;9.40;;
53714;SDS011;39608;55.630;37.864;2023-11-19T04:14:50;21.13;;;8.25;;
53714;SDS011;39608;55.630;37.864;2023-11-19T04:19:52;19.90;;;8.82;;
53714;SDS011;39608;55.630;37.864;2023-11-19T04:24:54;23.25;;;8.60;;
53714;SDS011;39608;55.630;37.864;2023-11-19T04:30:00;26.33;;;9.55;;
53714;SDS011;39608;55.630;37.864;2023-11-19T04:35:06;32.35;;;8.68;;
53714;SDS011;39608;55.630;37.864;2023-11-19T04:40:09;24.77;;;8.45;;
53714;SDS011;39608;55.630;37.864;2023-11-19T04:45:13;19.05;;;7.85;;
53714;SDS011;39608;55.630;37.864;2023-11-19T04:50:16;24.42;;;6.40;;
53714;SDS011;39608;55.630;37.864;2023-11-19T04:55:21;17.23;;;7.55;;
53714;SDS011;39608;55.630;37.864;2023-11-19T05:00:24;33.90;;;7.00;;
53714;SDS011;39608;55.630;37.864;2023-11-19T05:05:26;12.95;;;5.63;;
53714;SDS011;39608;55.630;37.864;2023-11-19T05:10:28;27.98;;;9.35;;
53714;SDS011;39608;55.630;37.864;2023-11-19T05:15:34;19.20;;;9.82;;
53714;SDS011;39608;55.630;37.864;2023-11-19T05:20:36;22.65;;;9.38;;
53714;SDS011;39608;55.630;37.864;2023-11-19T05:25:38;24.55;;;9.05;;
53714;SDS011;39608;55.630;37.864;2023-11-19T05:30:44;23.30;;;9.93;;
53714;SDS011;39608;55.630;37.864;2023-11-19T05:35:46;24.20;;;10.18;;
53714;SDS011;39608;55.630;37.864;2023-11-19T05:40:49;34.60;;;11.25;;
53714;SDS011;39608;55.630;37.864;2023-11-19T05:45:53;37.83;;;10.93;;
53714;SDS011;39608;55.630;37.864;2023-11-19T05:50:55;27.20;;;11.10;;
53714;SDS011;39608;55.630;37.864;2023-11-19T05:56:01;23.42;;;10.60;;
53714;SDS011;39608;55.630;37.864;2023-11-19T06:01:06;32.08;;;10.80;;
53714;SDS011;39608;55.630;37.864;2023-11-19T06:06:08;26.15;;;10.18;;
53714;SDS011;39608;55.630;37.864;2023-11-19T06:11:11;31.63;;;10.40;;
53714;SDS011;39608;55.630;37.864;2023-11-19T06:16:22;19.95;;;9.32;;
53714;SDS011;39608;55.630;37.864;2023-11-19T06:21:24;27.15;;;9.25;;
53714;SDS011;39608;55.630;37.864;2023-11-19T06:26:26;29.80;;;10.35;;
53714;SDS011;39608;55.630;37.864;2023-11-19T06:31:30;20.17;;;8.85;;
53714;SDS011;39608;55.630;37.864;2023-11-19T06:36:32;22.27;;;9.52;;
53714;SDS011;39608;55.630;37.864;2023-11-19T06:41:34;22.30;;;9.25;;
53714;SDS011;39608;55.630;37.864;2023-11-19T06:46:39;14.88;;;7.90;;
53714;SDS011;39608;55.630;37.864;2023-11-19T06:51:42;24.02;;;10.85;;
53714;SDS011;39608;55.630;37.864;2023-11-19T06:56:44;16.13;;;8.60;;
53714;SDS011;39608;55.630;37.864;2023-11-19T07:01:48;11.55;;;6.07;;
53714;SDS011;39608;55.630;37.864;2023-11-19T07:06:50;28.48;;;9.48;;
53714;SDS011;39608;55.630;37.864;2023-11-19T07:11:53;43.88;;;12.07;;
53714;SDS011;39608;55.630;37.864;2023-11-19T07:16:57;27.02;;;11.55;;
53714;SDS011;39608;55.630;37.864;2023-11-19T07:22:00;33.08;;;10.65;;
53714;SDS011;39608;55.630;37.864;2023-11-19T07:27:02;46.83;;;15.27;;
53714;SDS011;39608;55.630;37.864;2023-11-19T07:32:14;45.38;;;13.45;;
53714;SDS011;39608;55.630;37.864;2023-11-19T07:37:16;41.20;;;13.93;;
53714;SDS011;39608;55.630;37.864;2023-11-19T07:42:18;28.33;;;11.45;;
53714;SDS011;39608;55.630;37.864;2023-11-19T07:47:24;29.95;;;11.10;;
53714;SDS011;39608;55.630;37.864;2023-11-19T07:52:26;21.90;;;8.90;;
53714;SDS011;39608;55.630;37.864;2023-11-19T07:57:29;22.30;;;10.73;;
53714;SDS011;39608;55.630;37.864;2023-11-19T08:02:33;21.40;;;10.65;;
53714;SDS011;39608;55.630;37.864;2023-11-19T08:07:36;23.98;;;8.98;;
53714;SDS011;39608;55.630;37.864;2023-11-19T08:12:41;19.63;;;10.10;;
53714;SDS011;39608;55.630;37.864;2023-11-19T08:17:44;30.55;;;8.48;;
53714;SDS011;39608;55.630;37.864;2023-11-19T08:22:47;15.43;;;7.97;;
53714;SDS011;39608;55.630;37.864;2023-11-19T08:27:49;15.15;;;7.25;;
53714;SDS011;39608;55.630;37.864;2023-11-19T08:32:54;21.05;;;8.93;;
53714;SDS011;39608;55.630;37.864;2023-11-19T08:37:56;18.33;;;7.25;;
53714;SDS011;39608;55.630;37.864;2023-11-19T08:42:59;15.95;;;7.15;;
53714;SDS011;39608;55.630;37.864;2023-11-19T08:48:03;11.90;;;4.45;;
53714;SDS011;39608;55.630;37.864;2023-11-19T08:53:05;14.70;;;5.85;;
53714;SDS011;39608;55.630;37.864;2023-11-19T08:58:08;4.57;;;3.13;;
53714;SDS011;39608;55.630;37.864;2023-11-19T09:03:11;4.47;;;2.63;;
53714;SDS011;39608;55.630;37.864;2023-11-19T09:08:16;4.95;;;3.15;;
53714;SDS011;39608;55.630;37.864;2023-11-19T09:13:18;3.28;;;1.75;;
53714;SDS011;39608;55.630;37.864;2023-11-19T09:18:22;8.00;;;4.22;;
53714;SDS011;39608;55.630;37.864;2023-11-19T09:23:24;8.15;;;4.57;;
53714;SDS011;39608;55.630;37.864;2023-11-19T09:28:28;2.58;;;2.10;;
53714;SDS011;39608;55.630;37.864;2023-11-19T09:33:31;7.63;;;4.13;;
53714;SDS011;39608;55.630;37.864;2023-11-19T09:38:35;7.03;;;4.10;;
53714;SDS011;39608;55.630;37.864;2023-11-19T09:43:39;4.90;;;2.47;;
53714;SDS011;39608;55.630;37.864;2023-11-19T09:48:42;6.55;;;3.78;;
53714;SDS011;39608;55.630;37.864;2023-11-19T09:53:46;7.97;;;3.83;;
53714;SDS011;39608;55.630;37.864;2023-11-19T09:58:48;9.05;;;4.82;;
53714;SDS011;39608;55.630;37.864;2023-11-19T10:03:51;10.55;;;5.40;;
53714;SDS011;39608;55.630;37.864;2023-11-19T10:09:03;5.80;;;3.83;;
53714;SDS011;39608;55.630;37.864;2023-11-19T10:14:05;8.60;;;3.70;;
53714;SDS011;39608;55.630;37.864;2023-11-19T10:19:09;9.00;;;3.45;;
53714;SDS011;39608;55.630;37.864;2023-11-19T10:24:30;7.70;;;4.75;;
53714;SDS011;39608;55.630;37.864;2023-11-19T10:29:35;6.13;;;3.85;;
53714;SDS011;39608;55.630;37.864;2023-11-19T10:34:42;8.20;;;4.63;;
53714;SDS011;39608;55.630;37.864;2023-11-19T10:39:53;14.00;;;6.18;;
53714;SDS011;39608;55.630;37.864;2023-11-19T10:44:56;11.13;;;5.28;;
53714;SDS011;39608;55.630;37.864;2023-11-19T10:50:04;13.57;;;5.80;;
53714;SDS011;39608;55.630;37.864;2023-11-19T10:55:07;18.55;;;6.18;;
53714;SDS011;39608;55.630;37.864;2023-11-19T11:00:15;9.48;;;5.10;;
53714;SDS011;39608;55.630;37.864;2023-11-19T11:05:24;15.02;;;5.75;;
53714;SDS011;39608;55.630;37.864;2023-11-19T11:10:28;7.25;;;3.75;;
53714;SDS011;39608;55.630;37.864;2023-11-19T11:15:34;10.93;;;5.13;;
53714;SDS011;39608;55.630;37.864;2023-11-19T11:20:37;11.43;;;5.07;;
53714;SDS011;39608;55.630;37.864;2023-11-19T11:25:40;20.63;;;5.90;;
53714;SDS011;39608;55.630;37.864;2023-11-19T11:30:55;11.13;;;5.10;;
53714;SDS011;39608;55.630;37.864;2023-11-19T11:36:17;9.73;;;5.00;;
53714;SDS011;39608;55.630;37.864;2023-11-19T11:41:21;17.50;;;7.68;;
53714;SDS011;39608;55.630;37.864;2023-11-19T11:52:00;16.42;;;4.25;;
53714;SDS011;39608;55.630;37.864;2023-11-19T11:57:08;18.30;;;7.30;;
53714;SDS011;39608;55.630;37.864;2023-11-19T12:02:15;14.07;;;5.25;;
53714;SDS011;39608;55.630;37.864;2023-11-19T12:07:20;5.95;;;4.03;;
53714;SDS011;39608;55.630;37.864;2023-11-19T12:12:23;9.07;;;4.32;;
53714;SDS011;39608;55.630;37.864;2023-11-19T12:17:41;11.95;;;4.25;;
53714;SDS011;39608;55.630;37.864;2023-11-19T12:22:51;10.82;;;4.95;;
53714;SDS011;39608;55.630;37.864;2023-11-19T12:27:57;10.68;;;5.22;;
53714;SDS011;39608;55.630;37.864;2023-11-19T12:32:59;9.27;;;4.32;;
53714;SDS011;39608;55.630;37.864;2023-11-19T12:38:02;13.75;;;4.00;;
53714;SDS011;39608;55.630;37.864;2023-11-19T12:43:05;4.85;;;2.65;;
53714;SDS011;39608;55.630;37.864;2023-11-19T12:48:07;6.78;;;3.95;;
53714;SDS011;39608;55.630;37.864;2023-11-19T12:53:13;15.20;;;4.88;;
53714;SDS011;39608;55.630;37.864;2023-11-19T12:58:30;9.32;;;4.20;;
53714;SDS011;39608;55.630;37.864;2023-11-19T13:03:33;10.85;;;4.15;;
53714;SDS011;39608;55.630;37.864;2023-11-19T13:08:37;8.40;;;4.20;;
53714;SDS011;39608;55.630;37.864;2023-11-19T13:19:05;7.15;;;4.35;;
53714;SDS011;39608;55.630;37.864;2023-11-19T13:24:10;9.30;;;4.00;;
53714;SDS011;39608;55.630;37.864;2023-11-19T13:29:12;10.90;;;4.93;;
53714;SDS011;39608;55.630;37.864;2023-11-19T13:34:14;18.60;;;5.13;;
53714;SDS011;39608;55.630;37.864;2023-11-19T13:39:18;9.85;;;5.05;;
53714;SDS011;39608;55.630;37.864;2023-11-19T13:44:23;9.88;;;4.03;;
53714;SDS011;39608;55.630;37.864;2023-11-19T13:49:25;12.70;;;6.43;;
53714;SDS011;39608;55.630;37.864;2023-11-19T13:54:29;8.13;;;4.03;;
53714;SDS011;39608;55.630;37.864;2023-11-19T13:59:31;13.63;;;6.70;;
53714;SDS011;39608;55.630;37.864;2023-11-19T14:04:33;10.85;;;4.53;;
53714;SDS011;39608;55.630;37.864;2023-11-19T14:09:37;11.90;;;5.90;;
53714;SDS011;39608;55.630;37.864;2023-11-19T14:14:39;19.38;;;4.53;;
53714;SDS011;39608;55.630;37.864;2023-11-19T14:19:42;17.08;;;6.78;;
53714;SDS011;39608;55.630;37.864;2023-11-19T14:24:46;14.52;;;6.88;;
53714;SDS011;39608;55.630;37.864;2023-11-19T14:29:48;16.67;;;7.00;;
53714;SDS011;39608;55.630;37.864;2023-11-19T14:34:51;13.68;;;7.07;;
53714;SDS011;39608;55.630;37.864;2023-11-19T14:39:54;11.23;;;7.43;;
53714;SDS011;39608;55.630;37.864;2023-11-19T14:44:57;10.93;;;6.43;;
53714;SDS011;39608;55.630;37.864;2023-11-19T14:49:59;18.70;;;8.57;;
53714;SDS011;39608;55.630;37.864;2023-11-19T14:55:05;9.90;;;6.30;;
53714;SDS011;39608;55.630;37.864;2023-11-19T15:00:08;21.98;;;10.18;;
53714;SDS011;39608;55.630;37.864;2023-11-19T15:05:13;20.27;;;8.45;;
53714;SDS011;39608;55.630;37.864;2023-11-19T15:10:16;11.57;;;5.25;;
53714;SDS011;39608;55.630;37.864;2023-11-19T15:15:18;19.85;;;10.80;;
53714;SDS011;39608;55.630;37.864;2023-11-19T15:20:20;17.83;;;9.20;;
53714;SDS011;39608;55.630;37.864;2023-11-19T15:25:24;22.75;;;10.73;;
53714;SDS011;39608;55.630;37.864;2023-11-19T15:30:26;24.45;;;11.80;;
53714;SDS011;39608;55.630;37.864;2023-11-19T15:35:28;15.88;;;8.93;;
53714;SDS011;39608;55.630;37.864;2023-11-19T15:40:32;18.50;;;7.75;;
53714;SDS011;39608;55.630;37.864;2023-11-19T15:45:34;24.95;;;13.18;;
53714;SDS011;39608;55.630;37.864;2023-11-19T15:50:39;19.17;;;10.27;;
53714;SDS011;39608;55.630;37.864;2023-11-19T15:55:44;26.58;;;12.15;;
53714;SDS011;39608;55.630;37.864;2023-11-19T16:00:47;26.65;;;11.38;;
53714;SDS011;39608;55.630;37.864;2023-11-19T16:05:49;25.27;;;12.05;;
53714;SDS011;39608;55.630;37.864;2023-11-19T16:10:53;22.17;;;6.15;;
53714;SDS011;39608;55.630;37.864;2023-11-19T16:15:55;30.10;;;12.50;;
53714;SDS011;39608;55.630;37.864;2023-11-19T16:20:57;27.20;;;12.57;;
53714;SDS011;39608;55.630;37.864;2023-11-19T16:26:01;14.07;;;8.55;;
53714;SDS011;39608;55.630;37.864;2023-11-19T16:31:06;25.10;;;12.07;;
53714;SDS011;39608;55.630;37.864;2023-11-19T16:36:09;20.35;;;9.02;;
53714;SDS011;39608;55.630;37.864;2023-11-19T16:41:26;15.18;;;8.13;;
53714;SDS011;39608;55.630;37.864;2023-11-19T16:46:28;24.58;;;11.82;;
53714;SDS011;39608;55.630;37.864;2023-11-19T16:51:31;30.35;;;13.30;;
53714;SDS011;39608;55.630;37.864;2023-11-19T16:56:39;25.85;;;10.63;;
53714;SDS011;39608;55.630;37.864;2023-11-19T17:01:43;27.73;;;12.98;;
53714;SDS011;39608;55.630;37.864;2023-11-19T17:06:45;34.40;;;13.80;;
53714;SDS011;39608;55.630;37.864;2023-11-19T17:11:52;27.83;;;12.20;;
53714;SDS011;39608;55.630;37.864;2023-11-19T17:16:54;27.63;;;13.95;;
53714;SDS011;39608;55.630;37.864;2023-11-19T17:21:56;30.60;;;12.45;;
53714;SDS011;39608;55.630;37.864;2023-11-19T17:27:10;30.05;;;11.60;;
53714;SDS011;39608;55.630;37.864;2023-11-19T17:32:12;48.97;;;13.13;;
53714;SDS011;39608;55.630;37.864;2023-11-19T17:37:14;27.80;;;11.65;;
53714;SDS011;39608;55.630;37.864;2023-11-19T17:42:19;39.78;;;12.25;;
53714;SDS011;39608;55.630;37.864;2023-11-19T17:47:22;36.75;;;12.18;;
53714;SDS011;39608;55.630;37.864;2023-11-19T17:52:24;29.30;;;11.60;;
53714;SDS011;39608;55.630;37.864;2023-11-19T17:57:28;37.17;;;13.38;;
53714;SDS011;39608;55.630;37.864;2023-11-19T18:02:31;26.70;;;11.82;;
53714;SDS011;39608;55.630;37.864;2023-11-19T18:07:33;32.55;;;13.13;;
53714;SDS011;39608;55.630;37.864;2023-11-19T18:12:38;26.73;;;12.60;;
53714;SDS011;39608;55.630;37.864;2023-11-19T18:17:41;22.25;;;9.20;;
53714;SDS011;39608;55.630;37.864;2023-11-19T18:22:44;25.60;;;9.82;;
53714;SDS011;39608;55.630;37.864;2023-11-19T18:27:49;29.30;;;13.60;;
53714;SDS011;39608;55.630;37.864;2023-11-19T18:32:51;24.63;;;11.85;;
53714;SDS011;39608;55.630;37.864;2023-11-19T18:37:55;29.48;;;13.52;;
53714;SDS011;39608;55.630;37.864;2023-11-19T18:42:58;27.58;;;12.32;;
53714;SDS011;39608;55.630;37.864;2023-11-19T18:48:05;24.48;;;11.13;;
53714;SDS011;39608;55.630;37.864;2023-11-19T18:53:07;27.15;;;11.23;;
53714;SDS011;39608;55.630;37.864;2023-11-19T18:58:11;29.08;;;11.85;;
53714;SDS011;39608;55.630;37.864;2023-11-19T19:03:14;23.90;;;10.40;;
53714;SDS011;39608;55.630;37.864;2023-11-19T19:08:20;24.30;;;10.63;;
53714;SDS011;39608;55.630;37.864;2023-11-19T19:13:23;26.92;;;11.80;;
53714;SDS011;39608;55.630;37.864;2023-11-19T19:18:25;23.73;;;11.05;;
53714;SDS011;39608;55.630;37.864;2023-11-19T19:23:28;17.48;;;9.00;;
53714;SDS011;39608;55.630;37.864;2023-11-19T19:28:32;19.63;;;9.35;;
53714;SDS011;39608;55.630;37.864;2023-11-19T19:33:37;17.90;;;8.50;;
53714;SDS011;39608;55.630;37.864;2023-11-19T19:38:39;19.27;;;9.68;;
53714;SDS011;39608;55.630;37.864;2023-11-19T19:43:45;27.83;;;11.65;;
53714;SDS011;39608;55.630;37.864;2023-11-19T19:48:47;18.08;;;9.55;;
53714;SDS011;39608;55.630;37.864;2023-11-19T19:53:51;19.90;;;9.52;;
53714;SDS011;39608;55.630;37.864;2023-11-19T19:58:55;17.65;;;9.80;;
53714;SDS011;39608;55.630;37.864;2023-11-19T20:04:00;14.23;;;7.60;;
53714;SDS011;39608;55.630;37.864;2023-11-19T20:09:03;12.75;;;6.45;;
53714;SDS011;39608;55.630;37.864;2023-11-19T20:14:09;10.65;;;6.03;;
53714;SDS011;39608;55.630;37.864;2023-11-19T20:19:12;17.02;;;6.47;;
53714;SDS011;39608;55.630;37.864;2023-11-19T20:24:14;13.98;;;7.45;;
53714;SDS011;39608;55.630;37.864;2023-11-19T20:29:18;22.02;;;7.65;;
53714;SDS011;39608;55.630;37.864;2023-11-19T20:34:20;14.82;;;7.13;;
53714;SDS011;39608;55.630;37.864;2023-11-19T20:39:22;33.33;;;10.13;;
53714;SDS011;39608;55.630;37.864;2023-11-19T20:44:27;21.75;;;8.73;;
53714;SDS011;39608;55.630;37.864;2023-11-19T20:49:29;30.98;;;9.15;;
53714;SDS011;39608;55.630;37.864;2023-11-19T20:54:31;26.73;;;10.18;;
53714;SDS011;39608;55.630;37.864;2023-11-19T20:59:37;23.88;;;9.15;;
53714;SDS011;39608;55.630;37.864;2023-11-19T21:04:39;16.13;;;7.60;;
53714;SDS011;39608;55.630;37.864;2023-11-19T21:09:43;20.75;;;9.75;;
53714;SDS011;39608;55.630;37.864;2023-11-19T21:14:46;19.17;;;8.43;;
53714;SDS011;39608;55.630;37.864;2023-11-19T21:19:48;16.05;;;6.68;;
53714;SDS011;39608;55.630;37.864;2023-11-19T21:24:50;12.15;;;6.45;;
53714;SDS011;39608;55.630;37.864;2023-11-19T21:29:54;14.27;;;6.35;;
53714;SDS011;39608;55.630;37.864;2023-11-19T21:34:57;18.63;;;7.40;;
53714;SDS011;39608;55.630;37.864;2023-11-19T21:40:01;14.48;;;6.28;;
53714;SDS011;39608;55.630;37.864;2023-11-19T21:45:11;17.10;;;6.80;;
53714;SDS011;39608;55.630;37.864;2023-11-19T21:50:14;12.23;;;5.18;;
53714;SDS011;39608;55.630;37.864;2023-11-19T21:55:16;12.23;;;6.18;;
53714;SDS011;39608;55.630;37.864;2023-11-19T22:00:19;11.35;;;5.88;;
53714;SDS011;39608;55.630;37.864;2023-11-19T22:05:22;9.60;;;6.03;;
53714;SDS011;39608;55.630;37.864;2023-11-19T22:10:26;10.82;;;6.28;;
53714;SDS011;39608;55.630;37.864;2023-11-19T22:15:29;16.35;;;6.13;;
53714;SDS011;39608;55.630;37.864;2023-11-19T22:20:31;21.25;;;5.90;;
53714;SDS011;39608;55.630;37.864;2023-11-19T22:25:35;10.15;;;5.22;;
53714;SDS011;39608;55.630;37.864;2023-11-19T22:30:38;24.20;;;5.38;;
53714;SDS011;39608;55.630;37.864;2023-11-19T22:35:41;22.50;;;7.55;;
53714;SDS011;39608;55.630;37.864;2023-11-19T22:40:46;13.55;;;6.28;;
53714;SDS011;39608;55.630;37.864;2023-11-19T22:45:49;17.17;;;5.90;;
53714;SDS011;39608;55.630;37.864;2023-11-19T22:50:51;12.57;;;5.90;;
53714;SDS011;39608;55.630;37.864;2023-11-19T22:55:53;14.88;;;6.93;;
53714;SDS011;39608;55.630;37.864;2023-11-19T23:00:59;11.40;;;5.85;;
53714;SDS011;39608;55.630;37.864;2023-11-19T23:06:02;11.43;;;6.30;;
53714;SDS011;39608;55.630;37.864;2023-11-19T23:11:05;14.63;;;7.63;;
53714;SDS011;39608;55.630;37.864;2023-11-19T23:16:09;21.45;;;7.25;;
53714;SDS011;39608;55.630;37.864;2023-11-19T23:21:13;23.27;;;7.50;;
53714;SDS011;39608;55.630;37.864;2023-11-19T23:26:18;22.02;;;8.88;;
53714;SDS011;39608;55.630;37.864;2023-11-19T23:31:21;16.98;;;7.25;;
53714;SDS011;39608;55.630;37.864;2023-11-19T23:36:25;22.25;;;8.50;;
53714;SDS011;39608;55.630;37.864;2023-11-19T23:41:27;21.92;;;7.63;;
53714;SDS011;39608;55.630;37.864;2023-11-19T23:46:31;18.45;;;7.90;;
53714;SDS011;39608;55.630;37.864;2023-11-19T23:51:36;24.17;;;7.45;;
53714;SDS011;39608;55.630;37.864;2023-11-19T23:56:39;13.13;;;6.45;;
